Main page
METAR-TAF:

METAR-TAF

Airports :

Florence, Italy

Florence Airport

latitude: 43-48N, longitude: 011-12E, elevation: 40 m

Current weather observation

The report was made 37 minutes ago, at 00:50 UTC
Wind 3 kt from the East/Northeast
Temperature 14°C
Humidity 82%
Pressure 1015 hPa
Visibility 10 km or more
no clouds below 1500 m and no cumulonimbus

METAR: LIRQ 250050Z 06003KT CAVOK 14/11 Q1015

Time: 03:27 (01:27 UTC)

Forecast

The report was made 2 hours and 27 minutes ago, at 23:00 UTC
Forecast valid from 25 at 00 UTC to 25 at 24 UTC
Wind 6 kt from variable directions
Visibility 10 km or more
no clouds below 1500 m and no cumulonimbus

TAF: LIRQ 242300Z 2500/2524 VRB06KT CAVOK

Weather observations and forecasts of more than 4000 airports (METAR and TAF reports).

The available stations are represented by yellow and red dots on the map.

Hover mouse over dot to see the name of the station.

Then click to see weather observations and forecasts.

To change the map : click on the green buttons with a black cross to zoom in, on the green button with a dash to zoom out, or on the green arrows for adjacent maps.


METAR-TAF: